createdAt,value
2019-05-23T00:00:05.049Z,72
2019-05-23T00:01:07.208Z,72
2019-05-23T00:02:09.297Z,71
2019-05-23T00:03:12.146Z,71
2019-05-23T00:04:14.660Z,71
2019-05-23T00:05:16.766Z,71
2019-05-23T00:06:19.406Z,71
2019-05-23T00:07:21.591Z,72
2019-05-23T00:08:23.666Z,72
2019-05-23T00:09:25.819Z,72
2019-05-23T00:10:28.184Z,72
2019-05-23T00:11:30.998Z,72
2019-05-23T00:12:33.525Z,72
2019-05-23T00:13:35.597Z,72
2019-05-23T00:14:37.715Z,72
2019-05-23T00:15:40.191Z,72
2019-05-23T00:16:42.562Z,72
2019-05-23T00:17:45.021Z,72
2019-05-23T00:18:47.107Z,72
2019-05-23T00:19:49.525Z,72
2019-05-23T00:20:51.942Z,71
2019-05-23T00:21:54.747Z,71
2019-05-23T00:22:57.228Z,71
2019-05-23T00:23:59.958Z,71
2019-05-23T00:25:02.737Z,71
2019-05-23T00:26:05.483Z,71
2019-05-23T00:27:07.580Z,71
2019-05-23T00:28:09.675Z,71
2019-05-23T00:29:12.044Z,72
2019-05-23T00:30:14.188Z,72
2019-05-23T00:31:16.257Z,71
2019-05-23T00:32:18.736Z,71
2019-05-23T00:33:20.795Z,71
2019-05-23T00:34:22.878Z,72
2019-05-23T00:35:25.020Z,72
2019-05-23T00:36:27.333Z,72
2019-05-23T00:37:30.068Z,71
2019-05-23T00:38:32.593Z,71
2019-05-23T00:39:34.959Z,71
2019-05-23T00:40:37.472Z,72
2019-05-23T00:41:39.566Z,72
2019-05-23T00:42:41.625Z,72
2019-05-23T00:43:43.746Z,72
2019-05-23T00:44:45.882Z,72
2019-05-23T00:45:47.966Z,74
2019-05-23T00:46:49.987Z,72
2019-05-23T00:47:52.123Z,72
2019-05-23T00:48:54.266Z,72
2019-05-23T00:49:56.440Z,73
2019-05-23T00:50:58.910Z,72
2019-05-23T00:52:01.244Z,73
2019-05-23T00:53:03.380Z,72
2019-05-23T00:54:07.220Z,72
2019-05-23T00:55:09.677Z,72
2019-05-23T00:56:12.032Z,72
2019-05-23T00:57:14.213Z,72
2019-05-23T00:58:16.699Z,72
2019-05-23T00:59:28.561Z,71
2019-05-23T01:00:31.057Z,73
2019-05-23T01:01:33.209Z,73
2019-05-23T01:02:35.350Z,72
2019-05-23T01:03:37.444Z,72
2019-05-23T01:04:39.808Z,73
2019-05-23T01:05:42.312Z,72
2019-05-23T01:06:44.840Z,73
2019-05-23T01:07:46.997Z,72
2019-05-23T01:08:49.487Z,73
2019-05-23T01:09:51.897Z,73
2019-05-23T01:10:53.984Z,73
2019-05-23T01:11:56.052Z,73
2019-05-23T01:12:58.588Z,72
2019-05-23T01:14:01.359Z,72
2019-05-23T01:15:04.133Z,73
2019-05-23T01:16:06.490Z,73
2019-05-23T01:17:08.913Z,72
2019-05-23T01:18:10.995Z,72
2019-05-23T01:19:13.068Z,72
2019-05-23T01:20:15.512Z,72
2019-05-23T01:21:17.587Z,72
2019-05-23T01:22:20.009Z,72
2019-05-23T01:23:22.165Z,72
2019-05-23T01:24:24.536Z,72
2019-05-23T01:25:26.676Z,72
2019-05-23T01:26:28.758Z,72
2019-05-23T01:27:30.938Z,72
2019-05-23T01:28:33.992Z,72
2019-05-23T01:29:39.407Z,73
2019-05-23T01:30:41.555Z,72
2019-05-23T01:31:44.007Z,72
2019-05-23T01:32:46.166Z,72
2019-05-23T01:33:48.254Z,72
2019-05-23T01:34:50.330Z,72
2019-05-23T01:35:52.488Z,72
2019-05-23T01:36:55.223Z,72
2019-05-23T01:37:58.083Z,72
2019-05-23T01:39:00.550Z,72
2019-05-23T01:40:03.375Z,72
2019-05-23T01:41:05.469Z,72
2019-05-23T01:42:08.131Z,72
2019-05-23T01:43:11.171Z,72
2019-05-23T01:44:13.526Z,72
2019-05-23T01:45:15.692Z,72
2019-05-23T01:46:19.045Z,72
2019-05-23T01:47:21.416Z,72
2019-05-23T01:48:23.884Z,73
2019-05-23T01:49:25.977Z,72
2019-05-23T01:50:28.428Z,72
2019-05-23T01:51:30.536Z,73
2019-05-23T01:52:32.923Z,72
2019-05-23T01:53:35.294Z,73
2019-05-23T01:54:37.366Z,72
2019-05-23T01:55:39.563Z,73
2019-05-23T01:56:41.970Z,72
2019-05-23T01:57:44.102Z,72
2019-05-23T01:58:46.177Z,72
2019-05-23T01:59:48.671Z,72
2019-05-23T02:00:51.355Z,72
2019-05-23T02:01:53.774Z,72
2019-05-23T02:02:55.871Z,72
2019-05-23T02:03:58.350Z,72
2019-05-23T02:05:01.005Z,72
2019-05-23T02:06:03.390Z,72
2019-05-23T02:07:05.482Z,73
2019-05-23T02:08:08.726Z,73
2019-05-23T02:09:11.134Z,73
2019-05-23T02:10:13.646Z,73
2019-05-23T02:11:16.292Z,73
2019-05-23T02:12:18.835Z,73
2019-05-23T02:13:21.316Z,73
2019-05-23T02:14:23.666Z,72
2019-05-23T02:15:25.803Z,72
2019-05-23T02:16:27.892Z,72
2019-05-23T02:17:30.423Z,72
2019-05-23T02:18:32.517Z,72
2019-05-23T02:19:34.880Z,72
2019-05-23T02:20:36.957Z,73
2019-05-23T02:21:39.334Z,72
2019-05-23T02:22:41.872Z,72
2019-05-23T02:23:43.953Z,72
2019-05-23T02:24:46.097Z,72
2019-05-23T02:25:48.776Z,72
2019-05-23T02:26:50.841Z,72
2019-05-23T02:27:52.919Z,73
2019-05-23T02:28:55.296Z,73
2019-05-23T02:29:57.439Z,73
2019-05-23T02:30:59.903Z,72
2019-05-23T02:32:02.168Z,72
2019-05-23T02:33:04.635Z,72
2019-05-23T02:34:07.016Z,72
2019-05-23T02:35:09.171Z,72
2019-05-23T02:36:12.534Z,72
2019-05-23T02:37:15.039Z,72
2019-05-23T02:38:17.533Z,72
2019-05-23T02:39:19.666Z,72
2019-05-23T02:40:21.811Z,72
2019-05-23T02:41:24.140Z,72
2019-05-23T02:42:26.170Z,72
2019-05-23T02:43:28.612Z,72
2019-05-23T02:44:30.736Z,72
2019-05-23T02:45:33.616Z,72
2019-05-23T02:46:36.278Z,72
2019-05-23T02:47:39.146Z,73
2019-05-23T02:48:41.509Z,72
2019-05-23T02:49:43.592Z,73
2019-05-23T02:50:45.751Z,72
2019-05-23T02:51:49.071Z,73
2019-05-23T02:52:51.954Z,72
2019-05-23T02:53:54.239Z,72
2019-05-23T02:54:56.860Z,72
2019-05-23T02:55:59.361Z,72
2019-05-23T02:57:02.032Z,72
2019-05-23T02:58:04.395Z,72
2019-05-23T02:59:06.766Z,72
2019-05-23T03:00:09.143Z,72
2019-05-23T03:01:11.265Z,72
2019-05-23T03:02:13.620Z,72
2019-05-23T03:03:15.729Z,73
2019-05-23T03:04:17.866Z,73
2019-05-23T03:05:20.225Z,72
2019-05-23T03:06:23.080Z,72
2019-05-23T03:07:25.557Z,72
2019-05-23T03:08:27.795Z,72
2019-05-23T03:09:30.217Z,72
2019-05-23T03:10:33.064Z,72
2019-05-23T03:11:35.229Z,72
2019-05-23T03:12:37.860Z,74
2019-05-23T03:13:40.231Z,73
2019-05-23T03:14:42.392Z,73
2019-05-23T03:15:44.431Z,73
2019-05-23T03:16:47.253Z,72
2019-05-23T03:17:49.331Z,72
2019-05-23T03:18:51.426Z,72
2019-05-23T03:19:54.067Z,73
2019-05-23T03:20:56.169Z,73
2019-05-23T03:21:58.851Z,73
2019-05-23T03:23:01.612Z,73
2019-05-23T03:24:03.746Z,73
2019-05-23T03:25:06.516Z,73
2019-05-23T03:26:08.605Z,72
2019-05-23T03:27:10.783Z,72
2019-05-23T03:28:13.197Z,72
2019-05-23T03:29:15.873Z,72
2019-05-23T03:30:18.366Z,72
2019-05-23T03:31:34.334Z,73
2019-05-23T03:32:40.816Z,72
2019-05-23T03:33:43.325Z,72
2019-05-23T03:34:46.175Z,72
2019-05-23T03:35:48.724Z,72
2019-05-23T03:36:50.896Z,72
2019-05-23T03:37:53.271Z,72
2019-05-23T03:38:55.618Z,72
2019-05-23T03:39:58.151Z,72
2019-05-23T03:41:00.231Z,72
2019-05-23T03:42:02.381Z,72
2019-05-23T03:43:04.479Z,72
2019-05-23T03:44:06.853Z,72
2019-05-23T03:45:09.303Z,72
2019-05-23T03:46:12.039Z,72
2019-05-23T03:47:14.412Z,72
2019-05-23T03:48:16.436Z,72
2019-05-23T03:49:19.582Z,72
2019-05-23T03:50:22.222Z,72
2019-05-23T03:51:24.537Z,72
2019-05-23T03:52:26.930Z,72
2019-05-23T03:53:29.049Z,72
2019-05-23T03:54:31.189Z,72
2019-05-23T03:55:33.572Z,72
2019-05-23T03:56:36.250Z,72
2019-05-23T03:57:38.737Z,72
2019-05-23T03:58:41.246Z,72
2019-05-23T03:59:43.682Z,72
2019-05-23T04:00:45.787Z,73
2019-05-23T04:01:50.328Z,74
2019-05-23T04:02:52.452Z,73
2019-05-23T04:03:54.577Z,73
2019-05-23T04:04:57.046Z,72
2019-05-23T04:05:59.587Z,73
2019-05-23T04:07:01.726Z,73
2019-05-23T04:08:03.825Z,72
2019-05-23T04:09:06.314Z,72
2019-05-23T04:10:08.416Z,72
2019-05-23T04:11:10.519Z,72
2019-05-23T04:12:12.670Z,73
2019-05-23T04:13:14.717Z,72
2019-05-23T04:14:17.492Z,72
2019-05-23T04:15:19.596Z,73
2019-05-23T04:16:21.684Z,72
2019-05-23T04:17:23.803Z,72
2019-05-23T04:18:26.449Z,72
2019-05-23T04:19:28.854Z,72
2019-05-23T04:20:30.939Z,73
2019-05-23T04:21:33.117Z,72
2019-05-23T04:22:36.162Z,72
2019-05-23T04:23:38.517Z,73
2019-05-23T04:24:40.604Z,73
2019-05-23T04:25:43.608Z,72
2019-05-23T04:26:46.433Z,72
2019-05-23T04:27:48.470Z,72
2019-05-23T04:28:50.862Z,72
2019-05-23T04:29:53.669Z,73
2019-05-23T04:30:56.141Z,72
2019-05-23T04:32:10.035Z,74
2019-05-23T04:33:12.370Z,74
2019-05-23T04:34:14.845Z,73
2019-05-23T04:35:17.211Z,73
2019-05-23T04:36:19.621Z,72
2019-05-23T04:37:22.132Z,73
2019-05-23T04:38:24.787Z,73
2019-05-23T04:39:27.512Z,73
2019-05-23T04:40:29.980Z,73
2019-05-23T04:41:32.449Z,72
2019-05-23T04:42:34.854Z,72
2019-05-23T04:43:36.917Z,72
2019-05-23T04:44:45.009Z,73
2019-05-23T04:45:47.137Z,74
2019-05-23T04:46:49.289Z,74
2019-05-23T04:47:51.701Z,73
2019-05-23T04:48:53.784Z,73
2019-05-23T04:49:56.884Z,73
2019-05-23T04:51:01.862Z,73
2019-05-23T04:52:04.460Z,73
2019-05-23T04:53:06.524Z,73
2019-05-23T04:54:08.660Z,73
2019-05-23T04:55:10.746Z,73
2019-05-23T04:56:13.849Z,72
2019-05-23T04:57:16.546Z,73
2019-05-23T04:58:19.765Z,73
2019-05-23T04:59:22.318Z,72
2019-05-23T05:00:24.398Z,73
2019-05-23T05:01:26.928Z,73
2019-05-23T05:02:29.045Z,73
2019-05-23T05:03:31.478Z,73
2019-05-23T05:04:34.279Z,73
2019-05-23T05:05:36.426Z,73
2019-05-23T05:06:38.585Z,74
2019-05-23T05:07:41.418Z,73
2019-05-23T05:08:43.839Z,73
2019-05-23T05:09:46.241Z,74
2019-05-23T05:10:48.590Z,73
2019-05-23T05:11:51.121Z,73
2019-05-23T05:12:53.546Z,73
2019-05-23T05:13:55.948Z,73
2019-05-23T05:14:58.314Z,73
2019-05-23T05:16:01.083Z,73
2019-05-23T05:17:03.167Z,73
2019-05-23T05:18:05.541Z,73
2019-05-23T05:19:07.696Z,74
2019-05-23T05:20:10.211Z,73
2019-05-23T05:21:12.359Z,73
2019-05-23T05:22:14.441Z,73
2019-05-23T05:23:16.808Z,73
2019-05-23T05:24:19.370Z,73
2019-05-23T05:25:21.874Z,73
2019-05-23T05:26:25.030Z,73
2019-05-23T05:27:27.164Z,74
2019-05-23T05:28:29.567Z,73
2019-05-23T05:29:31.648Z,73
2019-05-23T05:30:34.898Z,73
2019-05-23T05:31:37.348Z,73
2019-05-23T05:32:46.807Z,73
2019-05-23T05:33:49.171Z,73
2019-05-23T05:34:51.579Z,73
2019-05-23T05:35:54.433Z,72
2019-05-23T05:36:56.961Z,72
2019-05-23T05:37:59.642Z,72
2019-05-23T05:39:02.448Z,73
2019-05-23T05:40:05.607Z,72
2019-05-23T05:41:07.736Z,73
2019-05-23T05:42:10.145Z,73
2019-05-23T05:43:12.262Z,73
2019-05-23T05:44:14.373Z,73
2019-05-23T05:45:16.764Z,73
2019-05-23T05:46:19.224Z,72
2019-05-23T05:47:21.604Z,73
2019-05-23T05:48:23.747Z,72
2019-05-23T05:49:25.882Z,73
2019-05-23T05:50:27.898Z,73
2019-05-23T05:51:30.047Z,72
2019-05-23T05:52:32.493Z,72
2019-05-23T05:53:34.570Z,72
2019-05-23T05:54:36.754Z,71
2019-05-23T05:55:39.140Z,71
2019-05-23T05:56:41.529Z,71
2019-05-23T05:57:43.934Z,71
2019-05-23T05:58:46.386Z,72
2019-05-23T05:59:48.734Z,72
2019-05-23T06:00:51.319Z,71
2019-05-23T06:01:53.744Z,72
2019-05-23T06:03:06.916Z,72
2019-05-23T06:04:10.055Z,71
2019-05-23T06:05:12.575Z,71
2019-05-23T06:06:15.494Z,70
2019-05-23T06:07:17.839Z,70
2019-05-23T06:08:20.271Z,69
2019-05-23T06:09:22.425Z,70
2019-05-23T06:10:24.889Z,72
2019-05-23T06:11:27.045Z,72
2019-05-23T06:12:29.510Z,72
2019-05-23T06:13:32.658Z,70
2019-05-23T06:14:35.111Z,70
2019-05-23T06:15:37.597Z,69
2019-05-23T06:16:40.426Z,69
2019-05-23T06:17:42.838Z,70
2019-05-23T06:18:45.292Z,70
2019-05-23T06:19:47.380Z,69
2019-05-23T06:20:49.852Z,69
2019-05-23T06:21:52.348Z,69
2019-05-23T06:22:55.111Z,68
2019-05-23T06:23:58.014Z,68
2019-05-23T06:25:01.127Z,68
2019-05-23T06:26:04.049Z,68
2019-05-23T06:27:06.136Z,68
2019-05-23T06:28:08.214Z,68
2019-05-23T06:29:10.637Z,68
2019-05-23T06:30:13.000Z,67
2019-05-23T06:31:15.148Z,67
2019-05-23T06:32:17.228Z,67
2019-05-23T06:33:25.217Z,68
2019-05-23T06:34:27.583Z,67
2019-05-23T06:35:29.949Z,68
2019-05-23T06:36:32.714Z,68
2019-05-23T06:37:35.973Z,68
2019-05-23T06:38:38.499Z,68
2019-05-23T06:39:40.577Z,68
2019-05-23T06:40:42.970Z,67
2019-05-23T06:41:45.325Z,67
2019-05-23T06:42:52.344Z,67
2019-05-23T06:43:54.769Z,68
2019-05-23T06:44:57.550Z,66
2019-05-23T06:45:59.966Z,67
2019-05-23T06:47:02.687Z,66
2019-05-23T06:48:05.061Z,67
2019-05-23T06:49:08.053Z,67
2019-05-23T06:50:10.446Z,66
2019-05-23T06:51:12.810Z,67
2019-05-23T06:52:15.535Z,67
2019-05-23T06:53:17.993Z,67
2019-05-23T06:54:20.413Z,68
2019-05-23T06:55:22.822Z,67
2019-05-23T06:56:24.945Z,66
2019-05-23T06:57:27.053Z,64
2019-05-23T07:00:37.144Z,65
2019-05-23T07:01:39.946Z,65
2019-05-23T07:02:42.466Z,65
2019-05-23T07:03:45.149Z,62
2019-05-23T07:04:47.566Z,63
2019-05-23T07:05:50.228Z,62
2019-05-23T07:06:52.435Z,63
2019-05-23T07:07:55.291Z,61
2019-05-23T07:08:57.763Z,61
2019-05-23T07:10:00.238Z,63
2019-05-23T07:11:03.431Z,62
2019-05-23T07:12:05.935Z,62
2019-05-23T07:13:08.561Z,62
2019-05-23T07:14:10.696Z,62
2019-05-23T07:15:12.910Z,61
2019-05-23T07:16:15.858Z,61
2019-05-23T07:17:18.423Z,61
2019-05-23T07:18:20.942Z,60
2019-05-23T07:19:23.128Z,58
2019-05-23T07:20:25.658Z,57
2019-05-23T07:21:28.585Z,59
2019-05-23T07:22:31.180Z,59
2019-05-23T07:23:34.044Z,59
2019-05-23T07:24:36.619Z,57
2019-05-23T07:25:39.163Z,57
2019-05-23T07:26:41.692Z,57
2019-05-23T07:27:44.110Z,57
2019-05-23T07:28:46.316Z,57
2019-05-23T07:29:48.888Z,57
2019-05-23T07:30:51.476Z,59
2019-05-23T07:31:54.034Z,56
2019-05-23T07:32:56.600Z,57
2019-05-23T07:34:03.626Z,56
2019-05-23T07:35:06.035Z,57
2019-05-23T07:36:08.981Z,56
2019-05-23T07:37:11.167Z,58
2019-05-23T07:38:13.692Z,59
2019-05-23T07:39:16.374Z,56
2019-05-23T07:40:18.960Z,56
2019-05-23T07:41:21.408Z,56
2019-05-23T07:42:24.190Z,57
2019-05-23T07:43:26.453Z,57
2019-05-23T07:44:28.656Z,56
2019-05-23T07:45:31.233Z,55
2019-05-23T07:46:34.096Z,55
2019-05-23T07:47:41.924Z,56
2019-05-23T07:48:44.174Z,56
2019-05-23T07:49:46.778Z,56
2019-05-23T07:50:49.349Z,54
2019-05-23T07:51:52.544Z,54
2019-05-23T07:52:55.753Z,54
2019-05-23T07:53:58.302Z,53
2019-05-23T07:55:00.529Z,54
2019-05-23T07:56:03.459Z,54
2019-05-23T07:57:05.935Z,56
2019-05-23T07:58:08.176Z,54
2019-05-23T07:59:10.652Z,54
2019-05-23T08:00:13.139Z,54
2019-05-23T08:01:15.474Z,55
2019-05-23T08:02:17.970Z,53
2019-05-23T08:03:20.173Z,56
2019-05-23T08:04:23.921Z,53
2019-05-23T08:05:26.187Z,54
2019-05-23T08:06:29.044Z,53
2019-05-23T08:07:33.924Z,55
2019-05-23T08:08:36.124Z,54
2019-05-23T08:09:38.728Z,52
2019-05-23T08:10:41.342Z,54
2019-05-23T08:11:43.822Z,52
2019-05-23T08:12:46.321Z,53
2019-05-23T08:13:49.132Z,52
2019-05-23T08:14:51.638Z,53
2019-05-23T08:15:53.902Z,54
2019-05-23T08:16:56.385Z,55
2019-05-23T08:17:59.698Z,52
2019-05-23T08:19:02.591Z,52
2019-05-23T08:20:05.496Z,52
2019-05-23T08:21:07.744Z,52
2019-05-23T08:22:09.920Z,54
2019-05-23T08:23:12.860Z,51
2019-05-23T08:24:15.322Z,54
2019-05-23T08:25:17.504Z,53
2019-05-23T08:26:19.737Z,52
2019-05-23T08:27:22.536Z,51
2019-05-23T08:28:25.167Z,50
2019-05-23T08:29:28.643Z,50
2019-05-23T08:30:30.905Z,51
2019-05-23T08:31:33.860Z,50
2019-05-23T08:32:37.198Z,49
2019-05-23T08:33:39.747Z,48
2019-05-23T08:34:44.166Z,48
2019-05-23T08:35:46.999Z,48
2019-05-23T08:36:49.191Z,50
2019-05-23T08:37:52.316Z,49
2019-05-23T08:38:54.545Z,49
2019-05-23T08:39:56.726Z,47
2019-05-23T08:40:58.841Z,49
2019-05-23T08:42:01.136Z,48
2019-05-23T08:43:03.367Z,48
2019-05-23T08:44:05.777Z,49
2019-05-23T08:45:08.261Z,49
2019-05-23T08:46:10.470Z,46
2019-05-23T08:47:13.379Z,44
2019-05-23T08:48:15.645Z,44
2019-05-23T08:49:17.842Z,44
2019-05-23T08:50:20.832Z,46
2019-05-23T08:51:23.368Z,47
2019-05-23T08:52:25.508Z,47
2019-05-23T08:53:27.762Z,46
2019-05-23T08:54:30.666Z,47
2019-05-23T08:55:33.605Z,45
2019-05-23T08:56:36.108Z,47
2019-05-23T08:57:39.494Z,46
2019-05-23T08:58:41.995Z,46
2019-05-23T08:59:44.450Z,45
2019-05-23T09:00:46.676Z,45
2019-05-23T09:01:49.761Z,44
2019-05-23T09:02:52.510Z,46
2019-05-23T09:03:54.999Z,45
2019-05-23T09:05:07.841Z,43
2019-05-23T09:06:09.996Z,43
2019-05-23T09:07:12.193Z,46
2019-05-23T09:08:18.777Z,43
2019-05-23T09:09:31.310Z,45
2019-05-23T09:10:34.250Z,44
2019-05-23T09:11:37.478Z,44
2019-05-23T09:12:40.054Z,43
2019-05-23T09:13:42.279Z,43
2019-05-23T09:14:44.985Z,43
2019-05-23T09:15:54.288Z,45
2019-05-23T09:16:56.898Z,44
2019-05-23T09:17:59.083Z,43
2019-05-23T09:19:01.285Z,43
2019-05-23T09:20:03.543Z,42
2019-05-23T09:21:05.769Z,41
2019-05-23T09:22:08.812Z,42
2019-05-23T09:23:11.009Z,41
2019-05-23T09:24:13.217Z,42
2019-05-23T09:25:15.850Z,42
2019-05-23T09:26:18.066Z,44
2019-05-23T09:27:20.315Z,46
2019-05-23T09:28:22.898Z,45
2019-05-23T09:29:25.069Z,42
2019-05-23T09:30:27.740Z,42
2019-05-23T09:31:29.901Z,41
2019-05-23T09:32:32.180Z,41
2019-05-23T09:33:34.642Z,43
2019-05-23T09:34:37.542Z,41
2019-05-23T09:35:40.447Z,45
2019-05-23T09:36:43.012Z,41
2019-05-23T09:37:46.060Z,38
2019-05-23T09:38:49.338Z,39
2019-05-23T09:39:52.607Z,41
2019-05-23T09:40:54.968Z,40
2019-05-23T09:41:57.847Z,41
2019-05-23T09:43:00.373Z,39
2019-05-23T09:44:03.547Z,38
2019-05-23T09:45:06.665Z,39
2019-05-23T09:46:08.798Z,39
2019-05-23T09:47:11.083Z,42
2019-05-23T09:48:13.980Z,38
2019-05-23T09:49:16.926Z,43
2019-05-23T09:50:19.990Z,40
2019-05-23T09:51:22.183Z,40
2019-05-23T09:52:24.445Z,40
2019-05-23T09:53:26.623Z,38
2019-05-23T09:54:29.270Z,37
2019-05-23T09:55:32.059Z,39
2019-05-23T09:56:34.649Z,39
2019-05-23T09:57:37.217Z,38
2019-05-23T09:58:39.413Z,39
2019-05-23T09:59:41.903Z,38
2019-05-23T10:00:44.097Z,38
2019-05-23T10:01:47.114Z,37
2019-05-23T10:02:49.996Z,40
2019-05-23T10:03:52.268Z,39
2019-05-23T10:04:55.486Z,39
2019-05-23T10:05:58.679Z,39
2019-05-23T10:07:00.960Z,37
2019-05-23T10:08:04.156Z,40
2019-05-23T10:09:06.748Z,39
2019-05-23T10:10:08.945Z,36
2019-05-23T10:11:11.144Z,38
2019-05-23T10:12:13.633Z,35
2019-05-23T10:13:16.207Z,37
2019-05-23T10:14:18.488Z,37
2019-05-23T10:15:20.710Z,38
2019-05-23T10:16:22.912Z,37
2019-05-23T10:17:26.792Z,39
2019-05-23T10:18:29.673Z,36
2019-05-23T10:19:31.859Z,36
2019-05-23T10:20:34.354Z,35
2019-05-23T10:21:36.569Z,36
2019-05-23T10:22:39.127Z,38
2019-05-23T10:23:41.370Z,35
2019-05-23T10:24:43.567Z,35
2019-05-23T10:25:46.541Z,37
2019-05-23T10:26:48.718Z,37
2019-05-23T10:27:51.280Z,36
2019-05-23T10:28:53.803Z,36
2019-05-23T10:29:56.364Z,37
2019-05-23T10:30:59.186Z,37
2019-05-23T10:32:01.651Z,36
2019-05-23T10:33:14.893Z,37
2019-05-23T10:34:17.797Z,35
2019-05-23T10:35:20.704Z,36
2019-05-23T10:36:22.915Z,39
2019-05-23T10:37:25.114Z,35
2019-05-23T10:38:30.799Z,36
2019-05-23T10:39:33.045Z,34
2019-05-23T10:40:35.566Z,36
2019-05-23T10:41:37.756Z,37
2019-05-23T10:42:40.010Z,37
2019-05-23T10:43:42.224Z,38
2019-05-23T10:44:46.794Z,37
2019-05-23T10:45:48.970Z,38
2019-05-23T10:46:51.461Z,38
2019-05-23T10:47:54.329Z,39
2019-05-23T10:48:57.268Z,39
2019-05-23T10:49:59.714Z,38
2019-05-23T10:51:02.893Z,36
2019-05-23T10:52:05.469Z,34
2019-05-23T10:53:07.604Z,35
2019-05-23T10:54:09.819Z,36
2019-05-23T10:55:12.109Z,34
2019-05-23T10:56:19.473Z,36
2019-05-23T10:57:23.031Z,36
2019-05-23T10:58:25.774Z,37
2019-05-23T10:59:28.046Z,36
2019-05-23T11:00:30.266Z,36
2019-05-23T11:01:32.846Z,35
2019-05-23T11:02:35.053Z,37
2019-05-23T11:03:37.280Z,37
2019-05-23T11:04:39.545Z,35
2019-05-23T11:05:42.072Z,37
2019-05-23T11:06:44.286Z,37
2019-05-23T11:07:47.217Z,37
2019-05-23T11:08:49.734Z,36
2019-05-23T11:09:52.574Z,37
2019-05-23T11:10:55.126Z,35
2019-05-23T11:11:57.660Z,34
2019-05-23T11:12:59.855Z,35
2019-05-23T11:14:02.869Z,33
2019-05-23T11:15:06.050Z,33
2019-05-23T11:16:09.205Z,34
2019-05-23T11:17:11.878Z,35
2019-05-23T11:18:15.431Z,37
2019-05-23T11:19:17.982Z,35
2019-05-23T11:20:20.204Z,37
2019-05-23T11:21:23.688Z,36
2019-05-23T11:22:26.293Z,35
2019-05-23T11:23:28.900Z,35
2019-05-23T11:24:31.109Z,36
2019-05-23T11:25:33.979Z,35
2019-05-23T11:26:36.218Z,35
2019-05-23T11:27:38.488Z,36
2019-05-23T11:28:40.997Z,35
2019-05-23T11:29:43.872Z,35
2019-05-23T11:30:46.351Z,35
2019-05-23T11:31:48.891Z,35
2019-05-23T11:32:51.127Z,36
2019-05-23T11:33:53.753Z,34
2019-05-23T11:34:56.266Z,36
2019-05-23T11:35:59.370Z,34
2019-05-23T11:37:01.643Z,34
2019-05-23T11:38:05.058Z,37
2019-05-23T11:39:07.954Z,35
2019-05-23T11:40:10.468Z,33
2019-05-23T11:41:13.263Z,35
2019-05-23T11:42:15.552Z,33
2019-05-23T11:43:17.778Z,35
2019-05-23T11:44:20.323Z,33
2019-05-23T11:45:22.469Z,34
2019-05-23T11:46:24.692Z,36
2019-05-23T11:47:32.464Z,36
2019-05-23T11:48:35.076Z,35
2019-05-23T11:49:37.346Z,34
2019-05-23T11:50:39.546Z,33
2019-05-23T11:51:42.137Z,32
2019-05-23T11:52:44.753Z,33
2019-05-23T11:54:11.013Z,34
2019-05-23T11:55:13.526Z,32
2019-05-23T11:56:16.716Z,32
2019-05-23T11:57:18.922Z,33
2019-05-23T11:58:21.473Z,32
2019-05-23T11:59:23.784Z,32
2019-05-23T12:00:26.604Z,32
2019-05-23T12:01:29.140Z,29
2019-05-23T12:02:32.118Z,30
2019-05-23T12:03:34.900Z,30
2019-05-23T12:04:37.598Z,30
2019-05-23T12:05:40.043Z,30
2019-05-23T12:06:57.463Z,32
2019-05-23T12:08:00.362Z,31
2019-05-23T12:09:03.391Z,33
2019-05-23T12:10:05.601Z,32
2019-05-23T12:11:07.749Z,32
2019-05-23T12:12:10.628Z,33
2019-05-23T12:13:13.400Z,34
2019-05-23T12:14:15.601Z,33
2019-05-23T12:15:18.209Z,31
2019-05-23T12:16:20.857Z,29
2019-05-23T12:17:23.085Z,29
2019-05-23T12:18:25.298Z,30
2019-05-23T12:19:28.503Z,31
2019-05-23T12:20:31.905Z,32
2019-05-23T12:21:34.378Z,32
2019-05-23T12:22:37.777Z,33
2019-05-23T12:23:40.056Z,30
2019-05-23T12:24:42.599Z,32
2019-05-23T12:25:44.798Z,29
2019-05-23T12:26:47.102Z,31
2019-05-23T12:27:50.373Z,33
2019-05-23T12:28:53.345Z,32
2019-05-23T12:29:56.016Z,31
2019-05-23T12:30:59.312Z,31
2019-05-23T12:32:02.271Z,34
2019-05-23T12:33:05.318Z,31
2019-05-23T12:34:07.941Z,30
2019-05-23T12:35:13.924Z,31
2019-05-23T12:36:16.389Z,31
2019-05-23T12:37:21.938Z,32
2019-05-23T12:38:24.832Z,30
2019-05-23T12:39:28.128Z,29
2019-05-23T12:40:30.617Z,30
2019-05-23T12:41:33.105Z,30
2019-05-23T12:42:35.347Z,29
2019-05-23T12:43:37.962Z,30
2019-05-23T12:44:41.079Z,31
2019-05-23T12:45:43.536Z,30
2019-05-23T12:46:46.513Z,29
2019-05-23T12:47:49.316Z,30
2019-05-23T12:48:52.203Z,29
2019-05-23T12:49:54.462Z,29
2019-05-23T12:50:57.361Z,30
2019-05-23T12:51:59.595Z,30
2019-05-23T12:53:02.209Z,31
2019-05-23T12:54:05.593Z,32
2019-05-23T12:55:08.590Z,30
2019-05-23T12:56:13.246Z,30
2019-05-23T12:57:15.979Z,30
2019-05-23T12:58:19.335Z,30
2019-05-23T12:59:21.878Z,29
2019-05-23T13:00:24.580Z,29
2019-05-23T13:01:27.162Z,29
2019-05-23T13:02:30.232Z,28
2019-05-23T13:03:33.031Z,29
2019-05-23T13:04:35.320Z,30
2019-05-23T13:05:38.098Z,29
2019-05-23T13:06:40.670Z,28
2019-05-23T13:07:42.943Z,29
2019-05-23T13:08:45.748Z,31
2019-05-23T13:09:48.766Z,29
2019-05-23T13:10:51.035Z,28
2019-05-23T13:11:54.363Z,28
2019-05-23T13:12:58.231Z,29
2019-05-23T13:14:01.120Z,28
2019-05-23T13:15:03.332Z,29
2019-05-23T13:16:05.557Z,31
2019-05-23T13:17:07.887Z,32
2019-05-23T13:18:10.750Z,30
2019-05-23T13:19:14.962Z,28
2019-05-23T13:20:18.327Z,32
2019-05-23T13:21:21.265Z,30
2019-05-23T13:22:24.803Z,28
2019-05-23T13:23:27.221Z,28
2019-05-23T13:24:53.373Z,29
2019-05-23T13:25:56.113Z,30
2019-05-23T13:26:58.528Z,31
2019-05-23T13:28:01.128Z,31
2019-05-23T13:29:03.655Z,31
2019-05-23T13:30:07.052Z,29
2019-05-23T13:31:10.304Z,29
2019-05-23T13:32:13.520Z,31
2019-05-23T13:33:15.778Z,30
2019-05-23T13:34:18.790Z,31
2019-05-23T13:35:21.088Z,28
2019-05-23T13:36:24.492Z,29
2019-05-23T13:37:26.846Z,30
2019-05-23T13:38:29.116Z,31
2019-05-23T13:39:32.382Z,32
2019-05-23T13:40:35.959Z,31
2019-05-23T13:41:40.487Z,31
2019-05-23T13:42:45.130Z,31
2019-05-23T13:43:47.535Z,32
2019-05-23T13:44:50.148Z,31
2019-05-23T13:45:52.376Z,31
2019-05-23T13:46:55.710Z,30
2019-05-23T13:47:59.169Z,30
2019-05-23T13:49:01.471Z,30
2019-05-23T13:50:05.164Z,30
2019-05-23T13:51:08.163Z,30
2019-05-23T13:52:12.060Z,31
2019-05-23T13:53:15.221Z,32
2019-05-23T13:54:17.817Z,28
2019-05-23T13:55:20.827Z,29
2019-05-23T13:56:23.485Z,27
2019-05-23T13:57:26.800Z,29
2019-05-23T13:58:29.522Z,28
2019-05-23T13:59:32.394Z,29
2019-05-23T14:00:35.678Z,31
2019-05-23T14:01:38.274Z,32
2019-05-23T14:02:40.642Z,33
2019-05-23T14:03:43.333Z,32
2019-05-23T14:04:46.206Z,32
2019-05-23T14:05:48.829Z,30
2019-05-23T14:06:51.963Z,29
2019-05-23T14:08:14.272Z,30
2019-05-23T14:09:16.482Z,28
2019-05-23T14:10:19.001Z,29
2019-05-23T14:11:21.553Z,27
2019-05-23T14:12:23.787Z,28
2019-05-23T14:13:28.614Z,30
2019-05-23T14:14:31.275Z,31
2019-05-23T14:15:33.513Z,29
2019-05-23T14:16:35.792Z,29
2019-05-23T14:17:39.597Z,34
2019-05-23T14:18:43.177Z,32
2019-05-23T14:19:45.750Z,31
2019-05-23T14:20:48.002Z,29
2019-05-23T14:21:50.305Z,29
2019-05-23T14:22:53.351Z,31
2019-05-23T14:23:56.023Z,30
2019-05-23T14:24:58.647Z,29
2019-05-23T14:26:01.137Z,30
2019-05-23T14:27:03.855Z,31
2019-05-23T14:28:06.547Z,29
2019-05-23T14:29:08.797Z,28
2019-05-23T14:30:17.038Z,28
2019-05-23T14:31:20.118Z,30
2019-05-23T14:32:22.881Z,28
2019-05-23T14:33:25.696Z,30
2019-05-23T14:34:28.382Z,29
2019-05-23T14:35:31.011Z,30
2019-05-23T14:36:33.597Z,27
2019-05-23T14:37:36.217Z,29
2019-05-23T14:38:38.497Z,29
2019-05-23T14:39:40.775Z,30
2019-05-23T14:40:42.945Z,29
2019-05-23T14:41:46.990Z,30
2019-05-23T14:42:53.566Z,29
2019-05-23T14:43:56.134Z,32
2019-05-23T14:44:58.816Z,31
2019-05-23T14:46:01.361Z,34
2019-05-23T14:47:03.584Z,36
2019-05-23T14:48:14.206Z,34
2019-05-23T14:49:16.810Z,37
2019-05-23T14:50:19.612Z,37
2019-05-23T14:51:22.961Z,34
2019-05-23T14:52:25.826Z,34
2019-05-23T14:53:28.687Z,31
2019-05-23T14:54:30.927Z,29
2019-05-23T14:55:33.141Z,28
2019-05-23T14:56:36.197Z,30
2019-05-23T14:57:39.023Z,31